createdAt,value
2023-02-12T00:01:34.992Z,45.25
2023-02-12T00:04:03.491Z,43.00
2023-02-12T00:06:32.302Z,45.00
2023-02-12T00:09:00.512Z,40.50
2023-02-12T00:11:29.915Z,39.00
2023-02-12T00:13:58.692Z,39.50
2023-02-12T00:16:29.036Z,44.00
2023-02-12T00:18:58.590Z,43.25
2023-02-12T00:21:27.363Z,41.00
2023-02-12T00:23:56.041Z,42.00
2023-02-12T00:26:24.884Z,38.50
2023-02-12T00:28:53.568Z,41.00
2023-02-12T00:31:25.830Z,38.33
2023-02-12T00:33:56.987Z,39.25
2023-02-12T00:36:27.576Z,42.00
2023-02-12T00:38:56.596Z,41.75
2023-02-12T00:41:27.002Z,39.33
2023-02-12T00:43:56.044Z,41.50
2023-02-12T00:46:24.781Z,41.25
2023-02-12T00:48:53.224Z,41.33
2023-02-12T00:51:22.092Z,39.00
2023-02-12T00:53:50.250Z,41.50
2023-02-12T00:56:18.817Z,37.33
2023-02-12T00:58:50.994Z,40.33
2023-02-12T01:01:20.049Z,38.50
2023-02-12T01:03:48.313Z,39.00
2023-02-12T01:06:17.017Z,39.25
2023-02-12T01:08:51.107Z,42.00
2023-02-12T01:11:20.317Z,37.75
2023-02-12T01:13:49.949Z,40.00
2023-02-12T01:16:21.714Z,39.33
2023-02-12T01:18:55.623Z,40.00
2023-02-12T01:21:27.857Z,42.25
2023-02-12T01:23:56.721Z,43.00
2023-02-12T01:26:26.159Z,40.67
2023-02-12T01:29:01.670Z,42.25
2023-02-12T01:31:34.574Z,42.00
2023-02-12T01:34:04.314Z,39.75
2023-02-12T01:36:35.778Z,42.00
2023-02-12T01:39:05.500Z,40.50
2023-02-12T01:41:36.731Z,40.75
2023-02-12T01:44:10.908Z,42.00
2023-02-12T01:46:40.999Z,41.25
2023-02-12T01:49:14.670Z,42.75
2023-02-12T01:51:45.012Z,41.50
2023-02-12T01:54:15.724Z,41.67
2023-02-12T01:56:44.241Z,42.00
2023-02-12T01:59:13.478Z,45.00
2023-02-12T02:01:42.347Z,44.00
2023-02-12T02:04:13.285Z,45.25
2023-02-12T02:07:01.759Z,46.00
2023-02-12T02:09:32.180Z,45.50
2023-02-12T02:12:19.805Z,43.00
2023-02-12T02:14:50.061Z,43.50
2023-02-12T02:17:24.359Z,44.00
2023-02-12T02:20:04.300Z,51.00
2023-02-12T02:23:06.903Z,47.00
2023-02-12T02:26:22.948Z,45.00
2023-02-12T02:29:26.498Z,46.50
2023-02-12T02:32:11.023Z,45.33
2023-02-12T02:34:54.809Z,45.25
2023-02-12T02:37:56.012Z,44.00
2023-02-12T02:40:32.656Z,46.00
2023-02-12T02:43:24.294Z,44.50
2023-02-12T02:46:14.805Z,45.00
2023-02-12T02:48:47.625Z,46.00
2023-02-12T02:51:22.906Z,46.00
2023-02-12T02:54:00.636Z,45.50
2023-02-12T02:56:31.058Z,44.00
2023-02-12T02:59:06.334Z,41.25
2023-02-12T03:01:56.370Z,44.50
2023-02-12T03:04:32.594Z,42.25
2023-02-12T03:07:10.809Z,42.50
2023-02-12T03:09:55.045Z,43.00
2023-02-12T03:12:37.947Z,42.00
2023-02-12T03:15:12.306Z,41.50
2023-02-12T03:17:45.977Z,43.00
2023-02-12T03:20:29.132Z,44.00
2023-02-12T03:23:17.718Z,42.00
2023-02-12T03:26:13.322Z,43.00
2023-02-12T03:28:41.909Z,40.25
2023-02-12T03:31:34.782Z,41.00
2023-02-12T03:34:16.005Z,40.25
2023-02-12T03:36:52.984Z,44.00
2023-02-12T03:39:41.276Z,39.50
2023-02-12T03:42:13.167Z,41.00
2023-02-12T03:44:55.171Z,41.75
2023-02-12T03:47:29.315Z,41.00
2023-02-12T03:50:09.814Z,38.50
2023-02-12T03:52:38.090Z,39.75
2023-02-12T03:55:07.114Z,41.00
2023-02-12T03:57:41.427Z,39.00
2023-02-12T04:00:15.995Z,40.50
2023-02-12T04:02:46.554Z,40.00
2023-02-12T04:05:29.155Z,39.00
2023-02-12T04:07:58.473Z,40.75
2023-02-12T04:10:39.003Z,40.00
2023-02-12T04:13:17.776Z,38.25
2023-02-12T04:16:15.137Z,38.25
2023-02-12T04:18:45.529Z,36.50
2023-02-12T04:21:37.119Z,37.00
2023-02-12T04:24:08.363Z,39.00
2023-02-12T04:27:07.024Z,40.00
2023-02-12T04:29:58.608Z,40.75
2023-02-12T04:32:29.694Z,39.25
2023-02-12T04:35:19.902Z,39.25
2023-02-12T04:37:54.194Z,37.50
2023-02-12T04:40:22.890Z,36.25
2023-02-12T04:42:53.270Z,37.50
2023-02-12T04:45:25.630Z,37.00
2023-02-12T04:47:54.412Z,37.25
2023-02-12T04:50:23.040Z,34.00
2023-02-12T04:52:51.508Z,37.00
2023-02-12T04:55:19.659Z,36.25
2023-02-12T04:57:48.158Z,36.00
2023-02-12T05:00:16.920Z,36.25
2023-02-12T05:02:45.343Z,33.50
2023-02-12T05:05:13.610Z,36.00
2023-02-12T05:07:42.179Z,35.00
2023-02-12T05:10:10.819Z,36.50
2023-02-12T05:12:39.220Z,35.00
2023-02-12T05:15:07.629Z,37.00
2023-02-12T05:17:36.505Z,36.00
2023-02-12T05:20:06.181Z,33.00
2023-02-12T05:22:34.827Z,35.50
2023-02-12T05:25:03.112Z,36.00
2023-02-12T05:27:31.658Z,33.25
2023-02-12T05:29:59.842Z,34.00
2023-02-12T05:32:28.280Z,34.25
2023-02-12T05:34:56.368Z,36.00
2023-02-12T05:37:24.828Z,36.50
2023-02-12T05:39:54.128Z,35.25
2023-02-12T05:42:22.686Z,35.25
2023-02-12T05:44:50.736Z,34.00
2023-02-12T05:47:19.517Z,35.25
2023-02-12T05:49:47.653Z,34.00
2023-02-12T05:52:16.797Z,34.00
2023-02-12T05:54:45.052Z,35.00
2023-02-12T05:57:13.612Z,35.25
2023-02-12T05:59:41.670Z,36.00
2023-02-12T06:02:10.169Z,35.50
2023-02-12T06:04:38.297Z,37.00
2023-02-12T06:07:07.570Z,38.00
2023-02-12T06:09:36.606Z,34.00
2023-02-12T06:12:05.277Z,35.00
2023-02-12T06:14:33.400Z,34.50
2023-02-12T06:17:01.909Z,35.00
2023-02-12T06:19:30.000Z,35.25
2023-02-12T06:21:58.807Z,35.00
2023-02-12T06:24:26.929Z,34.00
2023-02-12T06:26:55.366Z,34.00
2023-02-12T06:29:23.589Z,36.00
2023-02-12T06:31:52.221Z,35.00
2023-02-12T06:34:20.461Z,33.00
2023-02-12T06:36:49.236Z,35.50
2023-02-12T06:39:17.896Z,35.00
2023-02-12T06:41:46.383Z,36.00
2023-02-12T06:44:14.989Z,33.33
2023-02-12T06:46:43.584Z,33.00
2023-02-12T06:49:14.385Z,34.00
2023-02-12T06:51:42.970Z,33.50
2023-02-12T06:54:15.763Z,33.25
2023-02-12T06:56:44.864Z,33.00
2023-02-12T06:59:15.424Z,33.25
2023-02-12T07:01:43.973Z,34.67
2023-02-12T07:04:12.316Z,33.50
2023-02-12T07:06:40.978Z,33.00
2023-02-12T07:09:09.173Z,33.75
2023-02-12T07:11:38.428Z,34.00
2023-02-12T07:14:07.515Z,34.75
2023-02-12T07:16:35.997Z,35.00
2023-02-12T07:19:04.168Z,33.33
2023-02-12T07:21:32.844Z,30.00
2023-02-12T07:24:00.973Z,35.00
2023-02-12T07:26:29.782Z,33.25
2023-02-12T07:28:58.869Z,34.00
2023-02-12T07:31:27.447Z,33.25
2023-02-12T07:33:57.177Z,34.50
2023-02-12T07:36:28.680Z,35.50
2023-02-12T07:38:57.233Z,34.33
2023-02-12T07:41:26.858Z,35.00
2023-02-12T07:44:00.342Z,34.25
2023-02-12T07:46:45.580Z,36.00
2023-02-12T07:49:20.693Z,35.00
2023-02-12T07:51:50.331Z,35.33
2023-02-12T07:54:18.495Z,37.33
2023-02-12T07:56:47.543Z,35.00
2023-02-12T07:59:18.009Z,35.00
2023-02-12T08:01:48.667Z,37.33
2023-02-12T08:04:20.226Z,37.00
2023-02-12T08:06:51.513Z,38.00
2023-02-12T08:09:23.388Z,37.25
2023-02-12T08:11:52.268Z,36.67
2023-02-12T08:14:22.355Z,36.50
2023-02-12T08:16:51.626Z,36.00
2023-02-12T08:19:24.911Z,35.00
2023-02-12T08:21:57.884Z,34.00
2023-02-12T08:24:26.218Z,37.25
2023-02-12T08:26:54.774Z,33.33
2023-02-12T08:29:25.475Z,35.00
2023-02-12T08:31:59.020Z,34.50
2023-02-12T08:34:33.509Z,34.25
2023-02-12T08:37:02.415Z,36.00
2023-02-12T08:39:30.881Z,34.50
2023-02-12T08:42:01.740Z,34.33
2023-02-12T08:44:30.281Z,33.33
2023-02-12T08:46:58.719Z,34.00
2023-02-12T08:49:29.339Z,33.50
2023-02-12T08:51:58.953Z,38.00
2023-02-12T08:54:28.544Z,36.00
2023-02-12T08:56:58.727Z,35.75
2023-02-12T08:59:27.037Z,36.00
2023-02-12T09:01:55.880Z,36.25
2023-02-12T09:04:28.545Z,39.00
2023-02-12T09:06:57.095Z,38.25
2023-02-12T09:09:25.275Z,39.00
2023-02-12T09:11:53.779Z,42.00
2023-02-12T09:14:25.358Z,41.25
2023-02-12T09:16:57.498Z,40.00
2023-02-12T09:19:25.710Z,43.00
2023-02-12T09:21:56.264Z,42.00
2023-02-12T09:24:28.290Z,39.00
2023-02-12T09:26:56.948Z,43.00
2023-02-12T09:29:25.147Z,40.00
2023-02-12T09:31:53.871Z,42.00
2023-02-12T09:34:22.118Z,39.00
2023-02-12T09:36:50.944Z,42.25
2023-02-12T09:39:19.062Z,43.00
2023-02-12T09:41:53.257Z,38.33
2023-02-12T09:44:33.868Z,39.00
2023-02-12T09:47:05.976Z,39.25
2023-02-12T09:49:52.569Z,41.00
2023-02-12T09:52:25.144Z,41.50
2023-02-12T09:54:53.572Z,42.00
2023-02-12T09:57:33.694Z,38.25
2023-02-12T10:00:09.166Z,37.50
2023-02-12T10:02:39.530Z,40.25
2023-02-12T10:05:17.360Z,38.00
2023-02-12T10:08:10.207Z,40.50
2023-02-12T10:10:41.299Z,39.00
2023-02-12T10:13:19.059Z,39.50
2023-02-12T10:16:18.061Z,37.33
2023-02-12T10:19:06.449Z,38.25
2023-02-12T10:21:48.721Z,39.25
2023-02-12T10:24:36.110Z,39.00
2023-02-12T10:27:13.817Z,39.25
2023-02-12T10:29:44.031Z,37.00
2023-02-12T10:32:33.639Z,40.50
2023-02-12T10:35:02.663Z,35.25
2023-02-12T10:37:46.434Z,37.33
2023-02-12T10:40:23.817Z,39.00
2023-02-12T10:42:52.985Z,40.00
2023-02-12T10:45:24.994Z,39.25
2023-02-12T10:48:07.161Z,37.50
2023-02-12T10:50:58.859Z,38.75
2023-02-12T10:53:33.875Z,37.00
2023-02-12T10:56:21.940Z,35.25
2023-02-12T10:58:50.092Z,36.00
2023-02-12T11:01:27.690Z,36.50
2023-02-12T11:03:59.392Z,37.25
2023-02-12T11:06:30.309Z,34.25
2023-02-12T11:08:59.702Z,33.00
2023-02-12T11:11:31.492Z,36.00
2023-02-12T11:14:10.526Z,34.67
2023-02-12T11:16:51.740Z,32.75
2023-02-12T11:19:25.980Z,34.00
2023-02-12T11:22:07.792Z,34.00
2023-02-12T11:24:37.700Z,35.75
2023-02-12T11:27:26.593Z,34.75
2023-02-12T11:30:20.436Z,35.00
2023-02-12T11:32:49.769Z,33.50
2023-02-12T11:35:27.285Z,32.00
2023-02-12T11:37:58.023Z,34.00
2023-02-12T11:40:33.947Z,35.50
2023-02-12T11:43:05.991Z,34.00
2023-02-12T11:45:37.652Z,35.00
2023-02-12T11:48:36.081Z,33.33
2023-02-12T11:51:06.749Z,34.00
2023-02-12T11:53:49.215Z,32.50
2023-02-12T11:56:18.345Z,34.00
2023-02-12T11:58:48.551Z,37.00
2023-02-12T12:01:22.579Z,34.00
2023-02-12T12:04:12.225Z,33.50
2023-02-12T12:07:27.291Z,33.00
2023-02-12T12:10:28.794Z,32.00
2023-02-12T12:13:00.380Z,34.25
2023-02-12T12:15:51.046Z,31.33
2023-02-12T12:19:00.824Z,35.50
2023-02-12T12:21:46.330Z,42.00
2023-02-12T12:24:25.570Z,41.50
2023-02-12T12:27:01.205Z,42.50
2023-02-12T12:30:09.731Z,42.00
2023-02-12T12:32:40.102Z,41.50
2023-02-12T12:35:17.641Z,40.25
2023-02-12T12:37:55.422Z,45.25
2023-02-12T12:40:36.185Z,44.25
2023-02-12T12:43:40.430Z,43.00
2023-02-12T12:46:26.634Z,45.25
2023-02-12T12:49:15.093Z,43.75
2023-02-12T12:52:08.871Z,46.00
2023-02-12T12:54:37.795Z,48.33
2023-02-12T12:57:38.124Z,49.00
2023-02-12T13:00:23.678Z,49.50
2023-02-12T13:02:58.314Z,49.00
2023-02-12T13:05:55.351Z,49.25
2023-02-12T13:08:41.977Z,48.00
2023-02-12T13:11:30.695Z,50.25
2023-02-12T13:14:24.934Z,49.50
2023-02-12T13:17:13.658Z,49.00
2023-02-12T13:19:53.727Z,51.50
2023-02-12T13:22:29.557Z,49.00
2023-02-12T13:24:57.662Z,45.50
2023-02-12T13:27:38.356Z,43.25
2023-02-12T13:30:19.825Z,41.50
2023-02-12T13:32:55.136Z,40.25
2023-02-12T13:35:25.387Z,36.67
2023-02-12T13:37:55.321Z,35.00
2023-02-12T13:40:29.170Z,32.00
2023-02-12T13:43:07.715Z,31.75
2023-02-12T13:46:00.955Z,30.00
2023-02-12T13:48:41.407Z,28.00
2023-02-12T13:51:44.845Z,28.33
2023-02-12T13:54:36.816Z,27.75
2023-02-12T13:57:12.196Z,27.25
2023-02-12T13:59:43.918Z,26.00
2023-02-12T14:02:33.726Z,25.00
2023-02-12T14:05:26.945Z,28.25
2023-02-12T14:07:58.225Z,26.25
2023-02-12T14:10:37.082Z,24.00
2023-02-12T14:13:18.210Z,25.00
2023-02-12T14:15:52.447Z,28.00
2023-02-12T14:18:30.505Z,25.33
2023-02-12T14:21:14.237Z,25.50
2023-02-12T14:23:46.593Z,25.75
2023-02-12T14:26:18.313Z,26.75
2023-02-12T14:28:59.603Z,25.00
2023-02-12T14:31:28.161Z,26.50
2023-02-12T14:34:05.172Z,23.75
2023-02-12T14:36:33.609Z,27.00
2023-02-12T14:39:19.806Z,24.75
2023-02-12T14:41:55.535Z,25.33
2023-02-12T14:44:23.602Z,26.00
2023-02-12T14:47:05.392Z,23.00
2023-02-12T14:49:44.325Z,25.00
2023-02-12T14:52:12.845Z,26.75
2023-02-12T14:54:51.567Z,27.25
2023-02-12T14:57:35.122Z,26.00
2023-02-12T15:00:27.929Z,28.25
2023-02-12T15:03:15.361Z,24.33
2023-02-12T15:05:49.798Z,24.33
2023-02-12T15:08:47.629Z,28.00
2023-02-12T15:11:24.078Z,26.25
2023-02-12T15:14:04.061Z,27.00
2023-02-12T15:16:38.107Z,27.00
2023-02-12T15:19:40.177Z,26.50
2023-02-12T15:22:51.456Z,28.50
2023-02-12T15:25:32.121Z,29.00
2023-02-12T15:28:05.133Z,29.25
2023-02-12T15:30:36.460Z,29.75
2023-02-12T15:33:06.475Z,27.00
2023-02-12T15:35:38.042Z,27.33
2023-02-12T15:38:08.174Z,28.00
2023-02-12T15:40:36.851Z,27.50
2023-02-12T15:43:07.130Z,27.00
2023-02-12T15:45:37.267Z,27.00
2023-02-12T15:48:14.122Z,28.00
2023-02-12T15:51:18.991Z,26.00
2023-02-12T15:53:47.261Z,27.00
2023-02-12T15:56:19.961Z,26.00
2023-02-12T15:58:53.340Z,25.25
2023-02-12T16:01:27.904Z,26.00
2023-02-12T16:04:00.159Z,24.67
2023-02-12T16:06:32.059Z,26.25
2023-02-12T16:09:03.770Z,25.75
2023-02-12T16:11:33.251Z,25.00
2023-02-12T16:14:24.247Z,25.00
2023-02-12T16:16:55.862Z,23.25
2023-02-12T16:19:26.616Z,22.50
2023-02-12T16:22:16.776Z,23.67
2023-02-12T16:24:50.462Z,23.00
2023-02-12T16:27:22.046Z,23.25
2023-02-12T16:29:53.375Z,22.50
2023-02-12T16:32:39.745Z,22.25
2023-02-12T16:35:10.647Z,21.00
2023-02-12T16:37:39.038Z,21.25
2023-02-12T16:40:12.882Z,21.00
2023-02-12T16:42:47.475Z,22.25
2023-02-12T16:45:42.182Z,21.00
2023-02-12T16:48:23.766Z,21.67
2023-02-12T16:50:55.864Z,20.75
2023-02-12T16:53:33.757Z,21.00
2023-02-12T16:56:03.608Z,20.75
2023-02-12T16:58:32.096Z,22.00
2023-02-12T17:01:03.635Z,22.00
2023-02-12T17:03:32.290Z,21.50
2023-02-12T17:06:00.453Z,20.75
2023-02-12T17:08:29.448Z,22.00
2023-02-12T17:10:57.678Z,21.25
2023-02-12T17:13:26.229Z,19.25
2023-02-12T17:15:57.998Z,20.00
2023-02-12T17:18:26.854Z,21.25
2023-02-12T17:20:57.988Z,22.00
2023-02-12T17:23:27.113Z,22.25
2023-02-12T17:25:55.863Z,21.50
2023-02-12T17:28:25.400Z,21.00
2023-02-12T17:30:54.165Z,21.25
2023-02-12T17:33:22.927Z,20.50
2023-02-12T17:35:51.132Z,19.00
2023-02-12T17:38:19.780Z,20.25
2023-02-12T17:40:47.978Z,20.00
2023-02-12T17:43:16.597Z,20.33
2023-02-12T17:45:44.900Z,20.25
2023-02-12T17:48:15.616Z,20.50
2023-02-12T17:50:43.953Z,19.00
2023-02-12T17:53:13.241Z,20.25
2023-02-12T17:55:41.719Z,18.00
2023-02-12T17:58:10.963Z,18.00
2023-02-12T18:00:41.347Z,18.33
2023-02-12T18:03:09.914Z,20.00
2023-02-12T18:05:46.023Z,19.00
2023-02-12T18:08:14.583Z,19.25
2023-02-12T18:10:44.751Z,19.00
2023-02-12T18:13:14.273Z,19.00
2023-02-12T18:15:42.545Z,19.33
2023-02-12T18:18:11.412Z,19.25
2023-02-12T18:20:41.011Z,19.00
2023-02-12T18:23:10.584Z,18.25
2023-02-12T18:25:43.144Z,17.67
2023-02-12T18:28:12.188Z,20.25
2023-02-12T18:30:43.016Z,17.00
2023-02-12T18:33:12.907Z,19.25
2023-02-12T18:35:41.959Z,19.00
2023-02-12T18:38:10.752Z,19.25
2023-02-12T18:40:41.982Z,17.00
2023-02-12T18:43:10.977Z,19.00
2023-02-12T18:45:40.183Z,18.25
2023-02-12T18:48:09.509Z,17.00
2023-02-12T18:50:38.068Z,19.00
2023-02-12T18:53:06.798Z,18.00
2023-02-12T18:55:37.682Z,18.00
2023-02-12T18:58:06.482Z,18.00
2023-02-12T19:00:34.511Z,16.25
2023-02-12T19:03:03.032Z,17.50
2023-02-12T19:05:31.575Z,18.25
2023-02-12T19:08:00.117Z,17.00
2023-02-12T19:10:28.149Z,18.25
2023-02-12T19:12:56.494Z,18.25
2023-02-12T19:15:24.718Z,16.00
2023-02-12T19:17:53.214Z,17.33
2023-02-12T19:20:21.330Z,18.00
2023-02-12T19:22:49.836Z,17.00
2023-02-12T19:25:17.972Z,17.00
2023-02-12T19:27:47.622Z,17.00
2023-02-12T19:30:15.830Z,17.00
2023-02-12T19:32:44.197Z,17.33
2023-02-12T19:35:12.183Z,16.50
2023-02-12T19:37:40.573Z,17.00
2023-02-12T19:40:08.919Z,16.25
2023-02-12T19:42:37.313Z,18.00
2023-02-12T19:45:05.695Z,16.25
2023-02-12T19:47:34.095Z,16.00
2023-02-12T19:50:02.173Z,17.00
2023-02-12T19:52:30.572Z,16.00
2023-02-12T19:54:58.828Z,14.00
2023-02-12T19:57:27.304Z,17.00
2023-02-12T19:59:55.444Z,17.00
2023-02-12T20:02:24.308Z,16.00
2023-02-12T20:04:52.414Z,16.00
2023-02-12T20:07:20.897Z,16.33
2023-02-12T20:09:52.443Z,17.00
2023-02-12T20:12:20.954Z,15.50
2023-02-12T20:14:49.065Z,16.00
2023-02-12T20:17:18.765Z,15.75
2023-02-12T20:19:46.911Z,16.00
2023-02-12T20:22:15.385Z,16.25
2023-02-12T20:24:43.570Z,17.25
2023-02-12T20:27:14.069Z,16.25
2023-02-12T20:29:42.430Z,17.25
2023-02-12T20:32:12.393Z,15.25
2023-02-12T20:34:50.441Z,16.00
2023-02-12T20:37:20.579Z,17.00
2023-02-12T20:39:48.977Z,15.00
2023-02-12T20:42:17.438Z,16.00
2023-02-12T20:44:45.478Z,17.00
2023-02-12T20:47:13.907Z,16.00
2023-02-12T20:49:42.221Z,16.25
2023-02-12T20:52:10.910Z,16.00
2023-02-12T20:54:39.296Z,16.00
2023-02-12T20:57:08.069Z,15.25
2023-02-12T20:59:36.989Z,16.25
2023-02-12T21:02:06.631Z,16.00
2023-02-12T21:04:34.860Z,16.25
2023-02-12T21:07:03.305Z,17.25
2023-02-12T21:09:31.553Z,15.25
2023-02-12T21:11:59.993Z,16.00
2023-02-12T21:14:28.167Z,16.00
2023-02-12T21:16:56.890Z,16.00
2023-02-12T21:19:25.644Z,16.50
2023-02-12T21:21:54.451Z,16.00
2023-02-12T21:24:25.421Z,17.50
2023-02-12T21:26:55.265Z,17.00
2023-02-12T21:29:23.300Z,16.00
2023-02-12T21:31:51.802Z,16.00
2023-02-12T21:34:21.462Z,16.50
2023-02-12T21:36:50.864Z,16.25
2023-02-12T21:39:27.338Z,16.25
2023-02-12T21:42:02.994Z,15.25
2023-02-12T21:44:32.681Z,15.75
2023-02-12T21:47:01.218Z,16.00
2023-02-12T21:49:29.223Z,17.25
2023-02-12T21:51:59.408Z,15.50
2023-02-12T21:54:27.578Z,16.25
2023-02-12T21:56:56.852Z,16.25
2023-02-12T21:59:25.581Z,16.25
2023-02-12T22:01:56.286Z,15.00
2023-02-12T22:04:24.364Z,15.00
2023-02-12T22:06:54.161Z,16.33
2023-02-12T22:09:23.133Z,16.00
2023-02-12T22:11:52.620Z,16.00
2023-02-12T22:14:21.976Z,16.00
2023-02-12T22:16:50.751Z,16.00
2023-02-12T22:19:19.352Z,15.25
2023-02-12T22:21:51.585Z,17.00
2023-02-12T22:24:21.026Z,15.00
2023-02-12T22:26:49.324Z,15.00
2023-02-12T22:29:17.960Z,16.00
2023-02-12T22:31:47.256Z,16.33
2023-02-12T22:34:18.912Z,16.25
2023-02-12T22:36:47.814Z,16.00
2023-02-12T22:39:17.748Z,16.25
2023-02-12T22:41:46.364Z,16.00
2023-02-12T22:44:16.099Z,17.00
2023-02-12T22:46:44.314Z,15.00
2023-02-12T22:49:12.776Z,16.25
2023-02-12T22:51:41.007Z,15.25
2023-02-12T22:54:17.662Z,15.00
2023-02-12T22:56:46.695Z,16.00
2023-02-12T22:59:15.227Z,14.00
2023-02-12T23:01:43.626Z,15.00
2023-02-12T23:04:16.801Z,14.00
2023-02-12T23:06:46.407Z,15.25
2023-02-12T23:09:17.966Z,16.00
2023-02-12T23:11:46.571Z,15.50
2023-02-12T23:14:15.557Z,15.50
2023-02-12T23:16:43.935Z,16.00
2023-02-12T23:19:13.375Z,15.75
2023-02-12T23:21:42.010Z,15.50
2023-02-12T23:24:13.576Z,16.00
2023-02-12T23:26:41.937Z,15.25
2023-02-12T23:29:10.785Z,16.00
2023-02-12T23:31:39.122Z,15.00
2023-02-12T23:34:07.804Z,14.75
2023-02-12T23:36:36.022Z,16.25
2023-02-12T23:39:06.344Z,16.00
2023-02-12T23:41:34.809Z,16.25
2023-02-12T23:44:04.342Z,16.25
2023-02-12T23:46:32.661Z,16.00
2023-02-12T23:49:01.518Z,15.50
2023-02-12T23:51:30.381Z,16.00
2023-02-12T23:53:59.034Z,15.25
2023-02-12T23:56:27.307Z,15.25
2023-02-12T23:58:57.580Z,15.25
